Terminal Aerodrome Forecast
Issued by NWS

Home | Current Version | Previous Version | Text Only | Print | Product List | Glossary On
Versions: 1 2 3 4 5 6 7 8 9 10 11 12 13 14 15 16 17 18 19 20 21 22 23 24
000
FTUS46 KOTX 261139
TAFCOE
TAF
KCOE 261139Z 2612/2712 22004KT 4SM -SN SCT010 OVC022
     FM261500 VRB03KT 2SM -SN BR OVC015
     FM261700 16003KT 1 1/2SM -SN BR BKN008 OVC012
     FM262200 VRB04KT 3SM -SN BR BKN012 OVC025
     FM270300 02004KT 6SM -SHSN BKN015 OVC022
     FM270500 VRB03KT P6SM SCT006 OVC020=

USA.gov is the U.S. government's official web portal to all federal, state and local government web resources and services.